sensor_id;sensor_type;location;lat;lon;timestamp;P1;durP1;ratioP1;P2;durP2;ratioP2
19814;SDS011;10067;53.092;8.800;2023-07-31T00:01:12;13.40;;;3.28;;
19814;SDS011;10067;53.092;8.800;2023-07-31T00:03:39;8.95;;;3.65;;
19814;SDS011;10067;53.092;8.800;2023-07-31T00:06:05;9.57;;;3.58;;
19814;SDS011;10067;53.092;8.800;2023-07-31T00:08:31;14.75;;;3.83;;
19814;SDS011;10067;53.092;8.800;2023-07-31T00:10:58;8.63;;;3.35;;
19814;SDS011;10067;53.092;8.800;2023-07-31T00:13:24;15.57;;;4.18;;
19814;SDS011;10067;53.092;8.800;2023-07-31T00:15:52;10.13;;;3.70;;
19814;SDS011;10067;53.092;8.800;2023-07-31T00:18:18;7.60;;;3.08;;
19814;SDS011;10067;53.092;8.800;2023-07-31T00:20:44;10.68;;;3.85;;
19814;SDS011;10067;53.092;8.800;2023-07-31T00:23:11;8.75;;;2.88;;
19814;SDS011;10067;53.092;8.800;2023-07-31T00:25:37;7.55;;;2.95;;
19814;SDS011;10067;53.092;8.800;2023-07-31T00:28:04;10.35;;;3.00;;
19814;SDS011;10067;53.092;8.800;2023-07-31T00:30:30;7.22;;;3.20;;
19814;SDS011;10067;53.092;8.800;2023-07-31T00:32:58;6.60;;;3.00;;
19814;SDS011;10067;53.092;8.800;2023-07-31T00:35:24;7.72;;;3.00;;
19814;SDS011;10067;53.092;8.800;2023-07-31T00:37:50;8.30;;;2.95;;
19814;SDS011;10067;53.092;8.800;2023-07-31T00:40:17;7.13;;;3.13;;
19814;SDS011;10067;53.092;8.800;2023-07-31T00:42:43;9.30;;;3.00;;
19814;SDS011;10067;53.092;8.800;2023-07-31T00:45:10;8.82;;;3.10;;
19814;SDS011;10067;53.092;8.800;2023-07-31T00:47:36;9.70;;;3.20;;
19814;SDS011;10067;53.092;8.800;2023-07-31T00:50:04;7.65;;;2.80;;
19814;SDS011;10067;53.092;8.800;2023-07-31T00:52:31;6.05;;;2.65;;
19814;SDS011;10067;53.092;8.800;2023-07-31T00:54:57;6.65;;;3.22;;
19814;SDS011;10067;53.092;8.800;2023-07-31T00:57:24;4.75;;;3.22;;
19814;SDS011;10067;53.092;8.800;2023-07-31T00:59:50;6.75;;;3.30;;
19814;SDS011;10067;53.092;8.800;2023-07-31T01:02:16;6.70;;;2.50;;
19814;SDS011;10067;53.092;8.800;2023-07-31T01:04:43;9.18;;;3.13;;
19814;SDS011;10067;53.092;8.800;2023-07-31T01:07:12;5.85;;;2.80;;
19814;SDS011;10067;53.092;8.800;2023-07-31T01:09:40;5.20;;;2.90;;
19814;SDS011;10067;53.092;8.800;2023-07-31T01:12:09;7.20;;;2.90;;
19814;SDS011;10067;53.092;8.800;2023-07-31T01:14:36;7.47;;;3.20;;
19814;SDS011;10067;53.092;8.800;2023-07-31T01:17:03;8.32;;;3.10;;
19814;SDS011;10067;53.092;8.800;2023-07-31T01:19:29;7.13;;;2.92;;
19814;SDS011;10067;53.092;8.800;2023-07-31T01:22:05;8.07;;;3.08;;
19814;SDS011;10067;53.092;8.800;2023-07-31T01:24:41;11.63;;;2.95;;
19814;SDS011;10067;53.092;8.800;2023-07-31T01:27:10;7.97;;;3.53;;
19814;SDS011;10067;53.092;8.800;2023-07-31T01:29:41;7.65;;;3.15;;
19814;SDS011;10067;53.092;8.800;2023-07-31T01:32:09;8.02;;;3.33;;
19814;SDS011;10067;53.092;8.800;2023-07-31T01:34:37;5.18;;;2.90;;
19814;SDS011;10067;53.092;8.800;2023-07-31T01:37:03;9.50;;;3.15;;
19814;SDS011;10067;53.092;8.800;2023-07-31T01:39:30;6.65;;;3.35;;
19814;SDS011;10067;53.092;8.800;2023-07-31T01:41:56;6.25;;;3.20;;
19814;SDS011;10067;53.092;8.800;2023-07-31T01:44:24;4.85;;;2.72;;
19814;SDS011;10067;53.092;8.800;2023-07-31T01:46:50;8.77;;;3.22;;
19814;SDS011;10067;53.092;8.800;2023-07-31T01:49:17;7.25;;;3.00;;
19814;SDS011;10067;53.092;8.800;2023-07-31T01:51:43;9.73;;;3.00;;
19814;SDS011;10067;53.092;8.800;2023-07-31T01:54:09;7.22;;;2.95;;
19814;SDS011;10067;53.092;8.800;2023-07-31T01:56:36;5.90;;;2.85;;
19814;SDS011;10067;53.092;8.800;2023-07-31T01:59:02;6.38;;;3.30;;
19814;SDS011;10067;53.092;8.800;2023-07-31T02:01:30;4.43;;;2.75;;
19814;SDS011;10067;53.092;8.800;2023-07-31T02:03:56;5.72;;;3.10;;
19814;SDS011;10067;53.092;8.800;2023-07-31T02:06:23;4.93;;;3.20;;
19814;SDS011;10067;53.092;8.800;2023-07-31T02:08:49;6.10;;;3.00;;
19814;SDS011;10067;53.092;8.800;2023-07-31T02:11:15;4.88;;;3.30;;
19814;SDS011;10067;53.092;8.800;2023-07-31T02:13:42;7.20;;;3.30;;
19814;SDS011;10067;53.092;8.800;2023-07-31T02:16:08;7.72;;;3.80;;
19814;SDS011;10067;53.092;8.800;2023-07-31T02:18:36;6.90;;;3.78;;
19814;SDS011;10067;53.092;8.800;2023-07-31T02:21:02;5.22;;;3.33;;
19814;SDS011;10067;53.092;8.800;2023-07-31T02:23:29;8.65;;;3.63;;
19814;SDS011;10067;53.092;8.800;2023-07-31T02:25:55;7.93;;;3.67;;
19814;SDS011;10067;53.092;8.800;2023-07-31T02:28:25;5.53;;;3.28;;
19814;SDS011;10067;53.092;8.800;2023-07-31T02:30:51;7.90;;;3.75;;
19814;SDS011;10067;53.092;8.800;2023-07-31T02:33:18;6.22;;;4.13;;
19814;SDS011;10067;53.092;8.800;2023-07-31T02:35:45;6.97;;;4.05;;
19814;SDS011;10067;53.092;8.800;2023-07-31T02:38:18;7.68;;;4.28;;
19814;SDS011;10067;53.092;8.800;2023-07-31T02:40:46;4.85;;;4.35;;
19814;SDS011;10067;53.092;8.800;2023-07-31T02:43:13;8.82;;;4.70;;
19814;SDS011;10067;53.092;8.800;2023-07-31T02:45:39;8.40;;;4.53;;
19814;SDS011;10067;53.092;8.800;2023-07-31T02:48:06;8.35;;;4.97;;
19814;SDS011;10067;53.092;8.800;2023-07-31T02:50:32;9.55;;;4.65;;
19814;SDS011;10067;53.092;8.800;2023-07-31T02:53:00;9.23;;;4.68;;
19814;SDS011;10067;53.092;8.800;2023-07-31T02:55:26;8.52;;;4.43;;
19814;SDS011;10067;53.092;8.800;2023-07-31T02:57:53;7.25;;;4.53;;
19814;SDS011;10067;53.092;8.800;2023-07-31T03:00:19;8.18;;;4.05;;
19814;SDS011;10067;53.092;8.800;2023-07-31T03:02:46;7.18;;;4.38;;
19814;SDS011;10067;53.092;8.800;2023-07-31T03:05:12;7.10;;;4.22;;
19814;SDS011;10067;53.092;8.800;2023-07-31T03:07:39;8.80;;;4.90;;
19814;SDS011;10067;53.092;8.800;2023-07-31T03:10:07;7.00;;;5.03;;
19814;SDS011;10067;53.092;8.800;2023-07-31T03:12:34;8.60;;;4.82;;
19814;SDS011;10067;53.092;8.800;2023-07-31T03:15:00;6.22;;;4.55;;
19814;SDS011;10067;53.092;8.800;2023-07-31T03:17:26;6.28;;;4.30;;
19814;SDS011;10067;53.092;8.800;2023-07-31T03:19:53;10.60;;;4.70;;
19814;SDS011;10067;53.092;8.800;2023-07-31T03:22:20;7.25;;;4.45;;
19814;SDS011;10067;53.092;8.800;2023-07-31T03:24:47;7.55;;;5.38;;
19814;SDS011;10067;53.092;8.800;2023-07-31T03:27:14;7.22;;;5.10;;
19814;SDS011;10067;53.092;8.800;2023-07-31T03:29:41;6.60;;;5.00;;
19814;SDS011;10067;53.092;8.800;2023-07-31T03:32:10;7.07;;;5.22;;
19814;SDS011;10067;53.092;8.800;2023-07-31T03:34:36;6.82;;;4.80;;
19814;SDS011;10067;53.092;8.800;2023-07-31T03:37:03;9.10;;;4.82;;
19814;SDS011;10067;53.092;8.800;2023-07-31T03:39:30;6.15;;;4.47;;
19814;SDS011;10067;53.092;8.800;2023-07-31T03:41:56;6.43;;;5.13;;
19814;SDS011;10067;53.092;8.800;2023-07-31T03:44:26;7.25;;;4.60;;
19814;SDS011;10067;53.092;8.800;2023-07-31T03:46:52;5.13;;;4.47;;
19814;SDS011;10067;53.092;8.800;2023-07-31T03:49:19;7.38;;;4.68;;
19814;SDS011;10067;53.092;8.800;2023-07-31T03:51:45;8.88;;;5.00;;
19814;SDS011;10067;53.092;8.800;2023-07-31T03:54:12;7.05;;;5.25;;
19814;SDS011;10067;53.092;8.800;2023-07-31T03:56:39;8.10;;;4.60;;
19814;SDS011;10067;53.092;8.800;2023-07-31T03:59:05;5.53;;;4.93;;
19814;SDS011;10067;53.092;8.800;2023-07-31T04:01:33;7.85;;;5.85;;
19814;SDS011;10067;53.092;8.800;2023-07-31T04:04:00;6.75;;;4.97;;
19814;SDS011;10067;53.092;8.800;2023-07-31T04:06:26;7.60;;;5.80;;
19814;SDS011;10067;53.092;8.800;2023-07-31T04:08:53;7.78;;;5.97;;
19814;SDS011;10067;53.092;8.800;2023-07-31T04:11:19;8.05;;;5.90;;
19814;SDS011;10067;53.092;8.800;2023-07-31T04:13:46;9.05;;;6.18;;
19814;SDS011;10067;53.092;8.800;2023-07-31T04:16:13;7.70;;;6.55;;
19814;SDS011;10067;53.092;8.800;2023-07-31T04:18:43;12.18;;;6.07;;
19814;SDS011;10067;53.092;8.800;2023-07-31T04:21:09;11.52;;;5.50;;
19814;SDS011;10067;53.092;8.800;2023-07-31T04:23:36;8.00;;;6.10;;
19814;SDS011;10067;53.092;8.800;2023-07-31T04:26:02;8.23;;;6.43;;
19814;SDS011;10067;53.092;8.800;2023-07-31T04:28:29;9.27;;;5.93;;
19814;SDS011;10067;53.092;8.800;2023-07-31T04:30:56;7.20;;;6.03;;
19814;SDS011;10067;53.092;8.800;2023-07-31T04:33:23;9.02;;;6.40;;
19814;SDS011;10067;53.092;8.800;2023-07-31T04:35:55;9.90;;;6.03;;
19814;SDS011;10067;53.092;8.800;2023-07-31T04:38:22;8.40;;;6.57;;
19814;SDS011;10067;53.092;8.800;2023-07-31T04:40:48;7.60;;;5.75;;
19814;SDS011;10067;53.092;8.800;2023-07-31T04:43:15;7.03;;;5.40;;
19814;SDS011;10067;53.092;8.800;2023-07-31T04:45:42;5.43;;;4.65;;
19814;SDS011;10067;53.092;8.800;2023-07-31T04:48:08;8.43;;;5.85;;
19814;SDS011;10067;53.092;8.800;2023-07-31T04:50:35;4.97;;;4.43;;
19814;SDS011;10067;53.092;8.800;2023-07-31T04:53:05;5.20;;;4.38;;
19814;SDS011;10067;53.092;8.800;2023-07-31T04:55:32;8.13;;;4.97;;
19814;SDS011;10067;53.092;8.800;2023-07-31T04:57:58;8.32;;;4.75;;
19814;SDS011;10067;53.092;8.800;2023-07-31T05:00:25;5.38;;;4.60;;
19814;SDS011;10067;53.092;8.800;2023-07-31T05:02:54;7.00;;;5.00;;
19814;SDS011;10067;53.092;8.800;2023-07-31T05:05:21;7.15;;;3.95;;
19814;SDS011;10067;53.092;8.800;2023-07-31T05:07:47;5.38;;;4.22;;
19814;SDS011;10067;53.092;8.800;2023-07-31T05:10:15;6.60;;;5.05;;
19814;SDS011;10067;53.092;8.800;2023-07-31T05:12:42;7.90;;;4.85;;
19814;SDS011;10067;53.092;8.800;2023-07-31T05:15:09;5.32;;;4.47;;
19814;SDS011;10067;53.092;8.800;2023-07-31T05:17:35;6.35;;;4.90;;
19814;SDS011;10067;53.092;8.800;2023-07-31T05:20:02;8.50;;;4.85;;
19814;SDS011;10067;53.092;8.800;2023-07-31T05:22:31;4.05;;;3.58;;
19814;SDS011;10067;53.092;8.800;2023-07-31T05:24:57;5.70;;;4.60;;
19814;SDS011;10067;53.092;8.800;2023-07-31T05:27:25;4.07;;;3.75;;
19814;SDS011;10067;53.092;8.800;2023-07-31T05:29:51;4.88;;;3.67;;
19814;SDS011;10067;53.092;8.800;2023-07-31T05:32:18;7.65;;;3.40;;
19814;SDS011;10067;53.092;8.800;2023-07-31T05:34:44;5.28;;;3.70;;
19814;SDS011;10067;53.092;8.800;2023-07-31T05:37:11;3.60;;;3.05;;
19814;SDS011;10067;53.092;8.800;2023-07-31T05:39:37;5.95;;;3.63;;
19814;SDS011;10067;53.092;8.800;2023-07-31T05:42:04;4.30;;;3.22;;
19814;SDS011;10067;53.092;8.800;2023-07-31T05:44:32;4.70;;;3.17;;
19814;SDS011;10067;53.092;8.800;2023-07-31T05:46:58;4.88;;;2.80;;
19814;SDS011;10067;53.092;8.800;2023-07-31T05:49:24;2.95;;;2.63;;
19814;SDS011;10067;53.092;8.800;2023-07-31T05:51:51;4.22;;;2.72;;
19814;SDS011;10067;53.092;8.800;2023-07-31T05:54:17;4.85;;;2.78;;
19814;SDS011;10067;53.092;8.800;2023-07-31T05:56:43;3.00;;;2.70;;
19814;SDS011;10067;53.092;8.800;2023-07-31T05:59:11;3.03;;;2.45;;
19814;SDS011;10067;53.092;8.800;2023-07-31T06:01:39;2.70;;;2.45;;
19814;SDS011;10067;53.092;8.800;2023-07-31T06:04:06;3.13;;;2.53;;
19814;SDS011;10067;53.092;8.800;2023-07-31T06:06:32;3.90;;;3.13;;
19814;SDS011;10067;53.092;8.800;2023-07-31T06:08:58;6.70;;;3.80;;
19814;SDS011;10067;53.092;8.800;2023-07-31T06:11:25;4.10;;;3.05;;
19814;SDS011;10067;53.092;8.800;2023-07-31T06:13:51;6.20;;;2.60;;
19814;SDS011;10067;53.092;8.800;2023-07-31T06:16:18;4.28;;;2.95;;
19814;SDS011;10067;53.092;8.800;2023-07-31T06:18:46;4.90;;;2.97;;
19814;SDS011;10067;53.092;8.800;2023-07-31T06:21:12;3.95;;;3.40;;
19814;SDS011;10067;53.092;8.800;2023-07-31T06:23:39;4.75;;;3.25;;
19814;SDS011;10067;53.092;8.800;2023-07-31T06:26:05;3.67;;;3.08;;
19814;SDS011;10067;53.092;8.800;2023-07-31T06:28:32;3.97;;;3.15;;
19814;SDS011;10067;53.092;8.800;2023-07-31T06:30:58;4.72;;;3.30;;
19814;SDS011;10067;53.092;8.800;2023-07-31T06:33:24;3.00;;;2.65;;
19814;SDS011;10067;53.092;8.800;2023-07-31T06:35:52;4.63;;;2.60;;
19814;SDS011;10067;53.092;8.800;2023-07-31T06:38:22;2.75;;;2.50;;
19814;SDS011;10067;53.092;8.800;2023-07-31T06:40:49;3.00;;;2.58;;
19814;SDS011;10067;53.092;8.800;2023-07-31T06:43:15;4.13;;;2.78;;
19814;SDS011;10067;53.092;8.800;2023-07-31T06:45:41;3.47;;;2.90;;
19814;SDS011;10067;53.092;8.800;2023-07-31T06:48:08;4.47;;;2.75;;
19814;SDS011;10067;53.092;8.800;2023-07-31T06:50:34;5.00;;;2.78;;
19814;SDS011;10067;53.092;8.800;2023-07-31T06:53:03;3.38;;;2.60;;
19814;SDS011;10067;53.092;8.800;2023-07-31T06:55:29;3.40;;;2.40;;
19814;SDS011;10067;53.092;8.800;2023-07-31T06:57:56;3.70;;;2.83;;
19814;SDS011;10067;53.092;8.800;2023-07-31T07:00:22;2.70;;;2.50;;
19814;SDS011;10067;53.092;8.800;2023-07-31T07:02:49;3.42;;;2.13;;
19814;SDS011;10067;53.092;8.800;2023-07-31T07:05:15;3.53;;;2.35;;
19814;SDS011;10067;53.092;8.800;2023-07-31T07:07:42;4.30;;;2.25;;
19814;SDS011;10067;53.092;8.800;2023-07-31T07:10:10;3.10;;;2.22;;
19814;SDS011;10067;53.092;8.800;2023-07-31T07:12:37;4.82;;;2.67;;
19814;SDS011;10067;53.092;8.800;2023-07-31T07:15:03;2.28;;;1.98;;
19814;SDS011;10067;53.092;8.800;2023-07-31T07:17:30;1.83;;;1.55;;
19814;SDS011;10067;53.092;8.800;2023-07-31T07:19:57;2.63;;;2.38;;
19814;SDS011;10067;53.092;8.800;2023-07-31T07:22:23;2.10;;;1.77;;
19814;SDS011;10067;53.092;8.800;2023-07-31T07:24:50;2.78;;;2.47;;
19814;SDS011;10067;53.092;8.800;2023-07-31T07:27:18;3.60;;;2.40;;
19814;SDS011;10067;53.092;8.800;2023-07-31T07:29:45;3.33;;;2.25;;
19814;SDS011;10067;53.092;8.800;2023-07-31T07:32:11;5.20;;;2.90;;
19814;SDS011;10067;53.092;8.800;2023-07-31T07:34:38;4.10;;;2.33;;
19814;SDS011;10067;53.092;8.800;2023-07-31T07:37:04;6.30;;;3.38;;
19814;SDS011;10067;53.092;8.800;2023-07-31T07:39:31;8.40;;;3.80;;
19814;SDS011;10067;53.092;8.800;2023-07-31T07:41:57;9.65;;;4.30;;
19814;SDS011;10067;53.092;8.800;2023-07-31T07:44:25;10.25;;;4.93;;
19814;SDS011;10067;53.092;8.800;2023-07-31T07:46:51;8.68;;;4.47;;
19814;SDS011;10067;53.092;8.800;2023-07-31T07:49:18;9.05;;;4.60;;
19814;SDS011;10067;53.092;8.800;2023-07-31T07:51:44;9.88;;;5.22;;
19814;SDS011;10067;53.092;8.800;2023-07-31T07:54:10;13.45;;;5.60;;
19814;SDS011;10067;53.092;8.800;2023-07-31T07:56:37;14.13;;;6.50;;
19814;SDS011;10067;53.092;8.800;2023-07-31T07:59:04;16.02;;;8.07;;
19814;SDS011;10067;53.092;8.800;2023-07-31T08:01:31;15.77;;;8.40;;
19814;SDS011;10067;53.092;8.800;2023-07-31T08:03:58;16.92;;;9.38;;
19814;SDS011;10067;53.092;8.800;2023-07-31T08:06:24;18.95;;;9.25;;
19814;SDS011;10067;53.092;8.800;2023-07-31T08:08:51;20.25;;;10.13;;
19814;SDS011;10067;53.092;8.800;2023-07-31T08:11:17;22.48;;;10.10;;
19814;SDS011;10067;53.092;8.800;2023-07-31T08:13:44;21.25;;;10.55;;
19814;SDS011;10067;53.092;8.800;2023-07-31T08:16:10;24.05;;;10.77;;
19814;SDS011;10067;53.092;8.800;2023-07-31T08:18:38;23.48;;;11.10;;
19814;SDS011;10067;53.092;8.800;2023-07-31T08:21:05;22.40;;;11.48;;
19814;SDS011;10067;53.092;8.800;2023-07-31T08:23:32;27.45;;;12.15;;
19814;SDS011;10067;53.092;8.800;2023-07-31T08:25:58;25.20;;;12.52;;
19814;SDS011;10067;53.092;8.800;2023-07-31T08:28:24;24.38;;;13.45;;
19814;SDS011;10067;53.092;8.800;2023-07-31T08:30:51;28.10;;;12.55;;
19814;SDS011;10067;53.092;8.800;2023-07-31T08:33:17;28.23;;;14.10;;
19814;SDS011;10067;53.092;8.800;2023-07-31T08:35:46;22.92;;;12.82;;
19814;SDS011;10067;53.092;8.800;2023-07-31T08:38:12;26.95;;;13.00;;
19814;SDS011;10067;53.092;8.800;2023-07-31T08:40:39;27.90;;;12.95;;
19814;SDS011;10067;53.092;8.800;2023-07-31T08:43:05;34.22;;;13.70;;
19814;SDS011;10067;53.092;8.800;2023-07-31T08:45:31;24.75;;;12.48;;
19814;SDS011;10067;53.092;8.800;2023-07-31T08:47:58;35.25;;;14.85;;
19814;SDS011;10067;53.092;8.800;2023-07-31T08:50:25;32.38;;;12.52;;
19814;SDS011;10067;53.092;8.800;2023-07-31T08:52:53;29.52;;;13.52;;
19814;SDS011;10067;53.092;8.800;2023-07-31T08:55:20;27.92;;;13.00;;
19814;SDS011;10067;53.092;8.800;2023-07-31T08:57:48;29.88;;;12.15;;
19814;SDS011;10067;53.092;8.800;2023-07-31T09:00:16;33.67;;;12.65;;
19814;SDS011;10067;53.092;8.800;2023-07-31T09:02:45;28.25;;;12.27;;
19814;SDS011;10067;53.092;8.800;2023-07-31T09:05:12;25.15;;;11.57;;
19814;SDS011;10067;53.092;8.800;2023-07-31T09:07:38;29.13;;;12.95;;
19814;SDS011;10067;53.092;8.800;2023-07-31T09:10:07;27.00;;;14.77;;
19814;SDS011;10067;53.092;8.800;2023-07-31T09:12:33;26.95;;;11.38;;
19814;SDS011;10067;53.092;8.800;2023-07-31T09:15:00;24.30;;;9.40;;
19814;SDS011;10067;53.092;8.800;2023-07-31T09:17:29;25.75;;;10.00;;
19814;SDS011;10067;53.092;8.800;2023-07-31T09:19:57;18.10;;;8.95;;
19814;SDS011;10067;53.092;8.800;2023-07-31T09:22:31;27.88;;;8.30;;
19814;SDS011;10067;53.092;8.800;2023-07-31T09:24:57;17.92;;;8.18;;
19814;SDS011;10067;53.092;8.800;2023-07-31T09:27:32;19.13;;;8.75;;
19814;SDS011;10067;53.092;8.800;2023-07-31T09:30:11;18.13;;;8.57;;
19814;SDS011;10067;53.092;8.800;2023-07-31T09:32:37;17.70;;;8.63;;
19814;SDS011;10067;53.092;8.800;2023-07-31T09:35:11;16.63;;;7.75;;
19814;SDS011;10067;53.092;8.800;2023-07-31T09:37:38;20.08;;;8.38;;
19814;SDS011;10067;53.092;8.800;2023-07-31T09:40:05;12.60;;;7.65;;
19814;SDS011;10067;53.092;8.800;2023-07-31T09:42:33;24.25;;;8.52;;
19814;SDS011;10067;53.092;8.800;2023-07-31T09:45:06;17.02;;;8.35;;
19814;SDS011;10067;53.092;8.800;2023-07-31T09:47:33;15.32;;;7.78;;
19814;SDS011;10067;53.092;8.800;2023-07-31T09:49:59;15.50;;;7.82;;
19814;SDS011;10067;53.092;8.800;2023-07-31T09:52:26;13.13;;;7.07;;
19814;SDS011;10067;53.092;8.800;2023-07-31T09:54:52;13.45;;;7.65;;
19814;SDS011;10067;53.092;8.800;2023-07-31T09:57:18;13.75;;;7.25;;
19814;SDS011;10067;53.092;8.800;2023-07-31T09:59:49;12.85;;;6.18;;
19814;SDS011;10067;53.092;8.800;2023-07-31T10:02:20;11.30;;;5.97;;
19814;SDS011;10067;53.092;8.800;2023-07-31T10:04:46;13.52;;;6.35;;
19814;SDS011;10067;53.092;8.800;2023-07-31T10:07:14;11.60;;;5.97;;
19814;SDS011;10067;53.092;8.800;2023-07-31T10:09:42;10.38;;;5.28;;
19814;SDS011;10067;53.092;8.800;2023-07-31T10:12:08;11.90;;;5.55;;
19814;SDS011;10067;53.092;8.800;2023-07-31T10:14:36;13.25;;;5.18;;
19814;SDS011;10067;53.092;8.800;2023-07-31T10:17:05;8.50;;;4.85;;
19814;SDS011;10067;53.092;8.800;2023-07-31T10:19:32;10.95;;;5.18;;
19814;SDS011;10067;53.092;8.800;2023-07-31T10:21:59;9.07;;;4.40;;
19814;SDS011;10067;53.092;8.800;2023-07-31T10:24:27;11.07;;;4.60;;
19814;SDS011;10067;53.092;8.800;2023-07-31T10:26:54;8.90;;;4.75;;
19814;SDS011;10067;53.092;8.800;2023-07-31T10:29:22;7.45;;;4.07;;
19814;SDS011;10067;53.092;8.800;2023-07-31T10:31:49;9.88;;;4.97;;
19814;SDS011;10067;53.092;8.800;2023-07-31T10:34:18;10.38;;;4.68;;
19814;SDS011;10067;53.092;8.800;2023-07-31T10:36:44;9.98;;;3.50;;
19814;SDS011;10067;53.092;8.800;2023-07-31T10:41:52;4.90;;;2.63;;
19814;SDS011;10067;53.092;8.800;2023-07-31T10:44:18;5.47;;;2.90;;
19814;SDS011;10067;53.092;8.800;2023-07-31T10:46:45;6.30;;;2.53;;
19814;SDS011;10067;53.092;8.800;2023-07-31T10:49:12;4.18;;;2.67;;
19814;SDS011;10067;53.092;8.800;2023-07-31T10:51:48;4.28;;;2.95;;
19814;SDS011;10067;53.092;8.800;2023-07-31T10:54:15;4.97;;;2.67;;
19814;SDS011;10067;53.092;8.800;2023-07-31T10:56:44;3.45;;;2.45;;
19814;SDS011;10067;53.092;8.800;2023-07-31T10:59:10;4.28;;;2.95;;
19814;SDS011;10067;53.092;8.800;2023-07-31T11:01:53;3.45;;;2.35;;
19814;SDS011;10067;53.092;8.800;2023-07-31T11:04:22;4.88;;;2.10;;
19814;SDS011;10067;53.092;8.800;2023-07-31T11:06:55;4.25;;;2.60;;
19814;SDS011;10067;53.092;8.800;2023-07-31T11:09:21;3.58;;;2.08;;
19814;SDS011;10067;53.092;8.800;2023-07-31T11:11:47;2.28;;;1.50;;
19814;SDS011;10067;53.092;8.800;2023-07-31T11:14:16;2.58;;;2.33;;
19814;SDS011;10067;53.092;8.800;2023-07-31T11:16:43;3.97;;;2.25;;
19814;SDS011;10067;53.092;8.800;2023-07-31T11:19:11;3.05;;;2.00;;
19814;SDS011;10067;53.092;8.800;2023-07-31T11:21:37;6.63;;;2.50;;
19814;SDS011;10067;53.092;8.800;2023-07-31T11:24:03;2.50;;;1.90;;
19814;SDS011;10067;53.092;8.800;2023-07-31T11:26:30;1.40;;;1.13;;
19814;SDS011;10067;53.092;8.800;2023-07-31T11:28:56;2.05;;;1.45;;
19814;SDS011;10067;53.092;8.800;2023-07-31T11:31:23;2.28;;;1.60;;
19814;SDS011;10067;53.092;8.800;2023-07-31T11:33:49;1.70;;;1.58;;
19814;SDS011;10067;53.092;8.800;2023-07-31T11:36:17;1.98;;;1.50;;
19814;SDS011;10067;53.092;8.800;2023-07-31T11:38:44;1.98;;;1.20;;
19814;SDS011;10067;53.092;8.800;2023-07-31T11:41:13;1.20;;;1.02;;
19814;SDS011;10067;53.092;8.800;2023-07-31T11:43:39;4.00;;;1.05;;
19814;SDS011;10067;53.092;8.800;2023-07-31T11:46:06;1.25;;;0.90;;
19814;SDS011;10067;53.092;8.800;2023-07-31T11:48:33;3.42;;;1.00;;
19814;SDS011;10067;53.092;8.800;2023-07-31T11:51:01;1.40;;;1.05;;
19814;SDS011;10067;53.092;8.800;2023-07-31T11:53:30;1.10;;;0.90;;
19814;SDS011;10067;53.092;8.800;2023-07-31T11:55:57;2.03;;;1.13;;
19814;SDS011;10067;53.092;8.800;2023-07-31T11:58:24;1.42;;;0.93;;
19814;SDS011;10067;53.092;8.800;2023-07-31T12:00:51;1.67;;;1.00;;
19814;SDS011;10067;53.092;8.800;2023-07-31T12:03:17;1.40;;;0.80;;
19814;SDS011;10067;53.092;8.800;2023-07-31T12:05:46;1.83;;;1.40;;
19814;SDS011;10067;53.092;8.800;2023-07-31T12:08:13;2.22;;;1.08;;
19814;SDS011;10067;53.092;8.800;2023-07-31T12:10:41;1.00;;;0.90;;
19814;SDS011;10067;53.092;8.800;2023-07-31T12:13:11;2.78;;;1.60;;
19814;SDS011;10067;53.092;8.800;2023-07-31T12:15:40;1.10;;;1.00;;
19814;SDS011;10067;53.092;8.800;2023-07-31T12:18:07;1.15;;;1.05;;
19814;SDS011;10067;53.092;8.800;2023-07-31T12:20:34;2.30;;;1.67;;
19814;SDS011;10067;53.092;8.800;2023-07-31T12:23:00;1.30;;;1.20;;
19814;SDS011;10067;53.092;8.800;2023-07-31T12:25:31;1.45;;;1.10;;
19814;SDS011;10067;53.092;8.800;2023-07-31T12:28:03;1.50;;;1.30;;
19814;SDS011;10067;53.092;8.800;2023-07-31T12:30:31;2.15;;;1.40;;
19814;SDS011;10067;53.092;8.800;2023-07-31T12:33:02;1.70;;;1.30;;
19814;SDS011;10067;53.092;8.800;2023-07-31T12:35:34;1.55;;;1.27;;
19814;SDS011;10067;53.092;8.800;2023-07-31T12:38:00;1.30;;;1.20;;
19814;SDS011;10067;53.092;8.800;2023-07-31T12:40:27;1.70;;;1.50;;
19814;SDS011;10067;53.092;8.800;2023-07-31T12:42:53;1.70;;;1.60;;
19814;SDS011;10067;53.092;8.800;2023-07-31T12:45:21;3.08;;;1.40;;
19814;SDS011;10067;53.092;8.800;2023-07-31T12:47:48;2.03;;;1.58;;
19814;SDS011;10067;53.092;8.800;2023-07-31T12:50:15;1.70;;;1.60;;
19814;SDS011;10067;53.092;8.800;2023-07-31T12:52:41;3.50;;;1.77;;
19814;SDS011;10067;53.092;8.800;2023-07-31T12:55:08;4.90;;;2.35;;
19814;SDS011;10067;53.092;8.800;2023-07-31T12:57:36;1.90;;;1.80;;
19814;SDS011;10067;53.092;8.800;2023-07-31T13:00:02;2.33;;;2.10;;
19814;SDS011;10067;53.092;8.800;2023-07-31T13:02:30;2.80;;;2.17;;
19814;SDS011;10067;53.092;8.800;2023-07-31T13:04:56;4.75;;;2.90;;
19814;SDS011;10067;53.092;8.800;2023-07-31T13:07:23;3.15;;;2.45;;
19814;SDS011;10067;53.092;8.800;2023-07-31T13:09:49;2.60;;;2.10;;
19814;SDS011;10067;53.092;8.800;2023-07-31T13:12:15;3.03;;;2.60;;
19814;SDS011;10067;53.092;8.800;2023-07-31T13:14:42;2.60;;;1.88;;
19814;SDS011;10067;53.092;8.800;2023-07-31T13:17:08;4.35;;;2.40;;
19814;SDS011;10067;53.092;8.800;2023-07-31T13:19:37;2.67;;;2.10;;
19814;SDS011;10067;53.092;8.800;2023-07-31T13:22:03;3.85;;;2.20;;
19814;SDS011;10067;53.092;8.800;2023-07-31T13:24:30;1.90;;;1.80;;
19814;SDS011;10067;53.092;8.800;2023-07-31T13:26:56;3.13;;;2.67;;
19814;SDS011;10067;53.092;8.800;2023-07-31T13:29:23;3.33;;;2.40;;
19814;SDS011;10067;53.092;8.800;2023-07-31T13:31:49;4.28;;;2.38;;
19814;SDS011;10067;53.092;8.800;2023-07-31T13:34:15;3.38;;;2.63;;
19814;SDS011;10067;53.092;8.800;2023-07-31T13:36:43;4.10;;;3.40;;
19814;SDS011;10067;53.092;8.800;2023-07-31T13:39:10;3.33;;;3.03;;
19814;SDS011;10067;53.092;8.800;2023-07-31T13:41:36;4.78;;;3.60;;
19814;SDS011;10067;53.092;8.800;2023-07-31T13:44:03;3.58;;;3.17;;
19814;SDS011;10067;53.092;8.800;2023-07-31T13:46:29;6.03;;;4.00;;
19814;SDS011;10067;53.092;8.800;2023-07-31T13:48:57;4.82;;;4.13;;
19814;SDS011;10067;53.092;8.800;2023-07-31T13:51:24;4.43;;;3.60;;
19814;SDS011;10067;53.092;8.800;2023-07-31T13:53:53;5.68;;;3.78;;
19814;SDS011;10067;53.092;8.800;2023-07-31T13:56:21;6.82;;;4.35;;
19814;SDS011;10067;53.092;8.800;2023-07-31T13:58:48;6.13;;;4.75;;
19814;SDS011;10067;53.092;8.800;2023-07-31T14:01:15;6.25;;;4.63;;
19814;SDS011;10067;53.092;8.800;2023-07-31T14:03:41;5.10;;;4.60;;
19814;SDS011;10067;53.092;8.800;2023-07-31T14:06:08;6.15;;;4.75;;
19814;SDS011;10067;53.092;8.800;2023-07-31T14:08:34;5.47;;;4.88;;
19814;SDS011;10067;53.092;8.800;2023-07-31T14:11:04;6.90;;;4.68;;
19814;SDS011;10067;53.092;8.800;2023-07-31T14:13:34;5.63;;;5.03;;
19814;SDS011;10067;53.092;8.800;2023-07-31T14:16:01;6.53;;;5.70;;
19814;SDS011;10067;53.092;8.800;2023-07-31T14:18:27;6.82;;;6.03;;
19814;SDS011;10067;53.092;8.800;2023-07-31T14:21:08;7.85;;;6.60;;
19814;SDS011;10067;53.092;8.800;2023-07-31T14:23:34;7.97;;;6.35;;
19814;SDS011;10067;53.092;8.800;2023-07-31T14:26:02;7.72;;;6.55;;
19814;SDS011;10067;53.092;8.800;2023-07-31T14:28:29;8.50;;;6.68;;
19814;SDS011;10067;53.092;8.800;2023-07-31T14:30:55;9.55;;;6.90;;
19814;SDS011;10067;53.092;8.800;2023-07-31T14:33:21;8.48;;;6.82;;
19814;SDS011;10067;53.092;8.800;2023-07-31T14:35:48;8.43;;;6.75;;
19814;SDS011;10067;53.092;8.800;2023-07-31T14:38:15;7.45;;;6.20;;
19814;SDS011;10067;53.092;8.800;2023-07-31T14:40:41;11.35;;;8.80;;
19814;SDS011;10067;53.092;8.800;2023-07-31T14:43:09;7.97;;;7.05;;
19814;SDS011;10067;53.092;8.800;2023-07-31T14:45:35;14.23;;;8.07;;